createdAt,value
2018-12-11T00:01:00.048Z,25.53
2018-12-11T00:03:28.517Z,22.30
2018-12-11T00:05:58.004Z,23.03
2018-12-11T00:08:26.681Z,25.23
2018-12-11T00:10:55.161Z,34.60
2018-12-11T00:13:25.080Z,29.40
2018-12-11T00:15:54.211Z,21.37
2018-12-11T00:18:22.875Z,35.63
2018-12-11T00:20:51.344Z,27.97
2018-12-11T00:23:19.793Z,25.87
2018-12-11T00:25:49.183Z,21.67
2018-12-11T00:28:17.857Z,24.40
2018-12-11T00:30:46.303Z,25.43
2018-12-11T00:33:14.912Z,27.60
2018-12-11T00:35:43.412Z,22.63
2018-12-11T00:38:13.090Z,31.27
2018-12-11T00:40:41.564Z,36.93
2018-12-11T00:43:10.018Z,27.17
2018-12-11T00:45:38.481Z,30.30
2018-12-11T00:48:06.951Z,30.40
2018-12-11T00:50:35.425Z,27.53
2018-12-11T00:53:04.064Z,35.23
2018-12-11T00:55:32.593Z,26.40
2018-12-11T00:58:01.157Z,37.10
2018-12-11T01:00:29.698Z,25.83
2018-12-11T01:02:58.285Z,35.63
2018-12-11T01:05:26.735Z,33.93
2018-12-11T01:07:55.181Z,39.47
2018-12-11T01:10:23.649Z,31.67
2018-12-11T01:12:52.219Z,30.83
2018-12-11T01:15:20.765Z,38.10
2018-12-11T01:17:49.391Z,30.60
2018-12-11T01:20:17.864Z,29.70
2018-12-11T01:22:46.336Z,34.67
2018-12-11T01:25:14.925Z,29.13
2018-12-11T01:27:43.438Z,29.90
2018-12-11T01:30:12.334Z,26.23
2018-12-11T01:32:40.756Z,31.67
2018-12-11T01:35:09.305Z,30.53
2018-12-11T01:37:37.735Z,28.63
2018-12-11T01:40:07.081Z,27.23
2018-12-11T01:42:35.583Z,29.33
2018-12-11T01:45:04.274Z,34.43
2018-12-11T01:47:32.713Z,24.43
2018-12-11T01:50:01.145Z,32.63
2018-12-11T01:52:29.602Z,27.17
2018-12-11T01:54:58.056Z,35.73
2018-12-11T01:57:26.510Z,27.87
2018-12-11T01:59:54.941Z,31.30
2018-12-11T02:02:23.712Z,35.77
2018-12-11T02:04:52.315Z,31.57
2018-12-11T02:07:20.943Z,25.27
2018-12-11T02:09:49.423Z,31.03
2018-12-11T02:12:17.999Z,34.77
2018-12-11T02:14:46.577Z,25.87
2018-12-11T02:17:15.080Z,29.57
2018-12-11T02:19:43.578Z,34.13
2018-12-11T02:22:12.043Z,29.13
2018-12-11T02:24:40.487Z,27.90
2018-12-11T02:27:08.920Z,30.50
2018-12-11T02:29:37.947Z,30.73
2018-12-11T02:32:06.608Z,37.50
2018-12-11T02:34:35.025Z,43.33
2018-12-11T02:37:03.576Z,36.20
2018-12-11T02:39:32.006Z,28.03
2018-12-11T02:42:00.822Z,30.77
2018-12-11T02:44:29.280Z,29.23
2018-12-11T02:46:57.858Z,33.60
2018-12-11T02:49:26.350Z,36.07
2018-12-11T02:51:54.772Z,26.57
2018-12-11T02:54:23.855Z,37.73
2018-12-11T02:56:52.305Z,34.57
2018-12-11T02:59:20.762Z,30.27
2018-12-11T03:01:49.240Z,30.93
2018-12-11T03:04:17.685Z,24.77
2018-12-11T03:06:46.129Z,29.13
2018-12-11T03:09:14.604Z,30.37
2018-12-11T03:11:43.030Z,35.23
2018-12-11T03:14:11.557Z,36.70
2018-12-11T03:16:40.018Z,33.23
2018-12-11T03:19:08.489Z,30.90
2018-12-11T03:21:37.019Z,25.53
2018-12-11T03:24:06.465Z,22.97
2018-12-11T03:26:35.025Z,20.37
2018-12-11T03:29:03.622Z,31.40
2018-12-11T03:31:32.047Z,29.70
2018-12-11T03:34:00.693Z,31.07
2018-12-11T03:36:29.148Z,33.53
2018-12-11T03:38:57.583Z,32.93
2018-12-11T03:41:26.099Z,34.43
2018-12-11T03:43:54.558Z,26.63
2018-12-11T03:46:22.974Z,32.23
2018-12-11T03:48:51.492Z,32.17
2018-12-11T03:51:20.999Z,38.30
2018-12-11T03:53:49.731Z,30.20
2018-12-11T03:56:18.193Z,41.13
2018-12-11T03:58:46.622Z,28.20
2018-12-11T04:01:15.355Z,30.30
2018-12-11T04:03:44.642Z,32.47
2018-12-11T04:06:13.087Z,26.23
2018-12-11T04:08:41.568Z,29.23
2018-12-11T04:11:10.107Z,28.20
2018-12-11T04:13:38.581Z,30.83
2018-12-11T04:16:07.159Z,33.17
2018-12-11T04:18:35.586Z,29.57
2018-12-11T04:21:04.193Z,32.10
2018-12-11T04:23:32.686Z,28.20
2018-12-11T04:26:01.210Z,25.50
2018-12-11T04:28:30.447Z,24.10
2018-12-11T04:30:58.880Z,29.23
2018-12-11T04:33:28.176Z,28.40
2018-12-11T04:35:56.598Z,31.53
2018-12-11T04:38:25.065Z,21.70
2018-12-11T04:40:53.670Z,23.17
2018-12-11T04:43:22.243Z,24.70
2018-12-11T04:45:50.696Z,26.77
2018-12-11T04:48:19.192Z,39.57
2018-12-11T04:50:47.621Z,28.60
2018-12-11T04:53:17.041Z,26.47
2018-12-11T04:55:45.654Z,26.10
2018-12-11T04:58:14.103Z,30.30
2018-12-11T05:00:42.567Z,25.33
2018-12-11T05:03:11.034Z,27.37
2018-12-11T05:05:39.628Z,29.87
2018-12-11T05:08:15.645Z,29.07
2018-12-11T05:10:45.221Z,23.27
2018-12-11T05:13:13.783Z,25.60
2018-12-11T05:15:42.543Z,21.87
2018-12-11T05:18:11.434Z,26.47
2018-12-11T05:20:39.877Z,26.67
2018-12-11T05:23:08.980Z,26.13
2018-12-11T05:25:37.878Z,30.33
2018-12-11T05:28:06.344Z,20.20
2018-12-11T05:30:34.899Z,21.47
2018-12-11T05:33:03.358Z,33.53
2018-12-11T05:35:32.376Z,27.73
2018-12-11T05:38:00.855Z,21.33
2018-12-11T05:40:29.322Z,19.03
2018-12-11T05:42:57.945Z,24.93
2018-12-11T05:45:26.402Z,25.97
2018-12-11T05:47:54.851Z,25.00
2018-12-11T05:50:23.274Z,27.43
2018-12-11T05:52:51.794Z,29.70
2018-12-11T05:55:20.483Z,32.67
2018-12-11T05:57:49.562Z,31.67
2018-12-11T06:00:18.148Z,18.43
2018-12-11T06:02:46.619Z,23.70
2018-12-11T06:05:15.649Z,25.30
2018-12-11T06:07:44.085Z,20.13
2018-12-11T06:10:12.560Z,26.07
2018-12-11T06:12:41.202Z,25.93
2018-12-11T06:15:09.657Z,25.83
2018-12-11T06:17:38.158Z,20.83
2018-12-11T06:20:07.056Z,24.33
2018-12-11T06:22:35.524Z,21.20
2018-12-11T06:25:04.907Z,20.67
2018-12-11T06:27:34.264Z,23.43
2018-12-11T06:30:02.771Z,26.50
2018-12-11T06:32:31.344Z,25.30
2018-12-11T06:35:00.590Z,26.30
2018-12-11T06:37:29.027Z,27.63
2018-12-11T06:39:57.607Z,17.90
2018-12-11T06:42:26.019Z,18.80
2018-12-11T06:44:54.449Z,20.00
2018-12-11T06:47:22.908Z,24.93
2018-12-11T06:49:51.465Z,16.50
2018-12-11T06:52:20.181Z,24.30
2018-12-11T06:54:48.609Z,18.20
2018-12-11T06:57:17.078Z,18.63
2018-12-11T06:59:45.500Z,26.57
2018-12-11T07:02:13.961Z,23.20
2018-12-11T07:04:42.406Z,22.53
2018-12-11T07:07:10.893Z,19.50
2018-12-11T07:09:39.428Z,21.87
2018-12-11T07:12:07.982Z,14.53
2018-12-11T07:14:36.978Z,19.60
2018-12-11T07:17:05.648Z,19.83
2018-12-11T07:19:34.168Z,14.93
2018-12-11T07:22:02.631Z,19.80
2018-12-11T07:24:31.164Z,21.67
2018-12-11T07:26:59.686Z,23.33
2018-12-11T07:29:28.160Z,20.90
2018-12-11T07:31:56.597Z,17.47
2018-12-11T07:34:25.112Z,23.13
2018-12-11T07:36:53.550Z,24.57
2018-12-11T07:39:22.399Z,23.97
2018-12-11T07:41:50.948Z,20.30
2018-12-11T07:44:19.515Z,27.73
2018-12-11T07:46:47.986Z,21.90
2018-12-11T07:49:16.438Z,16.73
2018-12-11T07:51:44.891Z,18.47
2018-12-11T07:54:13.398Z,26.73
2018-12-11T07:56:42.746Z,19.17
2018-12-11T07:59:11.225Z,23.03
2018-12-11T08:01:39.773Z,24.07
2018-12-11T08:04:08.220Z,17.83
2018-12-11T08:06:36.731Z,29.53
2018-12-11T08:09:07.214Z,25.50
2018-12-11T08:11:35.662Z,26.83
2018-12-11T08:14:04.170Z,18.07
2018-12-11T08:16:32.932Z,20.30
2018-12-11T08:19:01.708Z,16.07
2018-12-11T08:21:30.148Z,28.43
2018-12-11T08:23:58.721Z,21.80
2018-12-11T08:26:27.264Z,17.17
2018-12-11T08:28:55.723Z,16.17
2018-12-11T08:31:24.205Z,22.97
2018-12-11T08:33:52.640Z,17.90
2018-12-11T08:36:21.237Z,20.20
2018-12-11T08:38:49.670Z,16.80
2018-12-11T08:41:19.212Z,17.57
2018-12-11T08:43:47.892Z,15.37
2018-12-11T08:46:16.480Z,13.63
2018-12-11T08:48:44.965Z,13.37
2018-12-11T08:51:13.404Z,18.83
2018-12-11T08:53:41.889Z,14.37
2018-12-11T08:56:10.343Z,15.07
2018-12-11T08:58:38.788Z,14.60
2018-12-11T09:01:07.357Z,19.00
2018-12-11T09:03:35.946Z,11.77
2018-12-11T09:06:04.363Z,16.20
2018-12-11T09:08:32.927Z,27.57
2018-12-11T09:11:01.343Z,23.70
2018-12-11T09:13:29.876Z,12.63
2018-12-11T09:15:58.361Z,16.90
2018-12-11T09:18:26.960Z,14.37
2018-12-11T09:20:55.415Z,15.30
2018-12-11T09:23:23.906Z,20.17
2018-12-11T09:25:52.353Z,16.53
2018-12-11T09:28:20.812Z,10.73
2018-12-11T09:30:49.672Z,12.27
2018-12-11T09:33:18.142Z,14.10
2018-12-11T09:35:46.701Z,11.93
2018-12-11T09:38:15.264Z,13.73
2018-12-11T09:40:43.700Z,17.77
2018-12-11T09:43:12.121Z,19.13
2018-12-11T09:45:40.725Z,12.90
2018-12-11T09:48:09.182Z,14.90
2018-12-11T09:50:37.700Z,14.30
2018-12-11T09:53:06.254Z,15.27
2018-12-11T09:55:34.780Z,11.77
2018-12-11T09:58:03.423Z,15.67
2018-12-11T10:00:32.152Z,17.47
2018-12-11T10:03:00.703Z,11.87
2018-12-11T10:05:29.144Z,17.77
2018-12-11T10:07:57.621Z,9.27
2018-12-11T10:10:26.072Z,11.50
2018-12-11T10:12:54.514Z,11.03
2018-12-11T10:15:22.977Z,7.23
2018-12-11T10:17:51.631Z,10.47
2018-12-11T10:20:20.445Z,10.70
2018-12-11T10:22:49.019Z,13.47
2018-12-11T10:25:17.642Z,10.60
2018-12-11T10:27:46.063Z,10.30
2018-12-11T10:30:15.091Z,9.20
2018-12-11T10:32:46.011Z,13.40
2018-12-11T10:35:14.623Z,9.73
2018-12-11T10:37:43.180Z,8.70
2018-12-11T10:40:11.625Z,7.93
2018-12-11T10:42:40.158Z,9.67
2018-12-11T10:45:08.867Z,7.23
2018-12-11T10:47:37.288Z,7.00
2018-12-11T10:50:07.182Z,7.53
2018-12-11T10:52:35.627Z,9.87
2018-12-11T10:55:04.306Z,17.00
2018-12-11T10:57:32.768Z,11.27
2018-12-11T11:00:01.238Z,10.77
2018-12-11T11:02:29.800Z,5.90
2018-12-11T11:04:58.254Z,12.10
2018-12-11T11:07:26.720Z,9.57
2018-12-11T11:09:55.155Z,10.30
2018-12-11T11:12:24.276Z,5.50
2018-12-11T11:14:52.745Z,15.83
2018-12-11T11:17:21.314Z,51.80
2018-12-11T11:19:50.314Z,8.80
2018-12-11T11:22:18.762Z,8.77
2018-12-11T11:24:47.328Z,11.37
2018-12-11T11:27:15.949Z,7.60
2018-12-11T11:29:44.950Z,10.10
2018-12-11T11:32:13.421Z,11.33
2018-12-11T11:34:42.482Z,6.80
2018-12-11T11:37:10.955Z,5.47
2018-12-11T11:39:39.497Z,10.50
2018-12-11T11:42:07.938Z,11.67
2018-12-11T11:44:36.470Z,9.47
2018-12-11T11:47:05.392Z,6.70
2018-12-11T11:49:33.837Z,8.10
2018-12-11T11:52:02.281Z,8.33
2018-12-11T11:54:30.713Z,9.43
2018-12-11T11:56:59.155Z,18.37
2018-12-11T11:59:27.717Z,12.57
2018-12-11T12:01:56.464Z,10.87
2018-12-11T12:04:25.112Z,13.33
2018-12-11T12:06:53.626Z,7.97
2018-12-11T12:09:23.081Z,10.03
2018-12-11T12:11:51.617Z,10.50
2018-12-11T12:14:20.095Z,8.50
2018-12-11T12:16:48.648Z,12.80
2018-12-11T12:19:17.120Z,7.37
2018-12-11T12:21:45.575Z,10.33
2018-12-11T12:24:14.174Z,13.30
2018-12-11T12:26:43.734Z,10.90
2018-12-11T12:29:12.295Z,10.63
2018-12-11T12:31:40.757Z,8.73
2018-12-11T12:34:09.226Z,8.33
2018-12-11T12:36:37.660Z,8.00
2018-12-11T12:39:08.268Z,7.33
2018-12-11T12:41:37.066Z,8.73
2018-12-11T12:44:05.577Z,4.70
2018-12-11T12:46:34.048Z,9.17
2018-12-11T12:49:02.543Z,7.67
2018-12-11T12:51:31.003Z,11.17
2018-12-11T12:53:59.508Z,7.90
2018-12-11T12:56:27.928Z,6.30
2018-12-11T12:58:56.484Z,7.80
2018-12-11T13:01:25.126Z,5.17
2018-12-11T13:03:53.725Z,8.23
2018-12-11T13:06:22.254Z,12.17
2018-12-11T13:08:52.419Z,14.80
2018-12-11T13:11:20.888Z,10.20
2018-12-11T13:13:49.352Z,6.53
2018-12-11T13:16:19.322Z,6.77
2018-12-11T13:18:47.908Z,4.07
2018-12-11T13:21:16.527Z,8.17
2018-12-11T13:23:45.167Z,4.30
2018-12-11T13:26:14.212Z,9.40
2018-12-11T13:28:42.676Z,9.40
2018-12-11T13:31:11.116Z,7.27
2018-12-11T13:33:39.788Z,9.30
2018-12-11T13:36:08.357Z,7.30
2018-12-11T13:38:36.852Z,5.10
2018-12-11T13:41:05.321Z,6.27
2018-12-11T13:43:34.296Z,5.33
2018-12-11T13:46:03.269Z,7.30
2018-12-11T13:48:32.004Z,8.90
2018-12-11T13:51:00.486Z,3.90
2018-12-11T13:53:28.927Z,5.73
2018-12-11T13:55:57.354Z,8.03
2018-12-11T13:58:25.822Z,5.80
2018-12-11T14:00:54.302Z,9.77
2018-12-11T14:03:23.093Z,8.07
2018-12-11T14:05:51.544Z,12.17
2018-12-11T14:08:19.992Z,9.37
2018-12-11T14:10:49.415Z,9.63
2018-12-11T14:13:18.411Z,3.37
2018-12-11T14:15:47.017Z,9.40
2018-12-11T14:18:15.944Z,5.50
2018-12-11T14:20:44.530Z,5.30
2018-12-11T14:23:12.951Z,5.60
2018-12-11T14:25:41.892Z,5.03
2018-12-11T14:28:10.694Z,6.73
2018-12-11T14:30:39.231Z,10.07
2018-12-11T14:33:07.746Z,5.73
2018-12-11T14:35:36.633Z,6.70
2018-12-11T14:38:05.276Z,4.07
2018-12-11T14:40:33.769Z,6.30
2018-12-11T14:43:02.267Z,4.37
2018-12-11T14:45:30.690Z,1.40
2018-12-11T14:47:59.243Z,5.37
2018-12-11T14:50:27.687Z,5.50
2018-12-11T14:52:56.140Z,8.83
2018-12-11T14:55:25.293Z,6.87
2018-12-11T14:57:53.853Z,6.63
2018-12-11T15:00:22.358Z,8.17
2018-12-11T15:02:50.951Z,4.70
2018-12-11T15:05:19.514Z,6.77
2018-12-11T15:07:48.047Z,9.60
2018-12-11T15:10:16.849Z,7.37
2018-12-11T15:12:45.463Z,7.43
2018-12-11T15:15:13.937Z,4.73
2018-12-11T15:17:42.434Z,8.77
2018-12-11T15:20:10.834Z,5.30
2018-12-11T15:22:39.383Z,4.97
2018-12-11T15:25:07.914Z,5.23
2018-12-11T15:27:36.438Z,9.77
2018-12-11T15:30:05.416Z,9.47
2018-12-11T15:32:33.967Z,9.23
2018-12-11T15:35:02.444Z,5.53
2018-12-11T15:37:30.949Z,5.37
2018-12-11T15:39:59.558Z,5.77
2018-12-11T15:42:27.997Z,6.63
2018-12-11T15:44:57.731Z,8.07
2018-12-11T15:47:26.766Z,7.27
2018-12-11T15:49:55.315Z,6.60
2018-12-11T15:52:23.801Z,8.00
2018-12-11T15:54:52.274Z,20.30
2018-12-11T15:57:20.728Z,10.20
2018-12-11T15:59:49.338Z,15.03
2018-12-11T16:02:17.814Z,10.73
2018-12-11T16:04:46.301Z,13.57
2018-12-11T16:07:14.851Z,14.20
2018-12-11T16:09:43.371Z,9.70
2018-12-11T16:12:11.851Z,8.70
2018-12-11T16:14:40.505Z,12.17
2018-12-11T16:17:09.059Z,17.57
2018-12-11T16:19:37.573Z,11.43
2018-12-11T16:22:06.020Z,17.20
2018-12-11T16:24:35.664Z,11.93
2018-12-11T16:27:04.222Z,12.23
2018-12-11T16:29:33.245Z,16.40
2018-12-11T16:32:02.264Z,9.30
2018-12-11T16:34:31.527Z,14.47
2018-12-11T16:36:59.983Z,14.80
2018-12-11T16:39:28.437Z,9.60
2018-12-11T16:41:56.976Z,5.77
2018-12-11T16:44:25.557Z,11.60
2018-12-11T16:46:54.637Z,13.83
2018-12-11T16:49:23.131Z,15.70
2018-12-11T16:51:51.626Z,12.13
2018-12-11T16:54:20.080Z,9.20
2018-12-11T16:56:48.529Z,16.47
2018-12-11T16:59:17.924Z,15.30
2018-12-11T17:01:46.337Z,16.77
2018-12-11T17:04:14.832Z,10.23
2018-12-11T17:06:43.364Z,8.87
2018-12-11T17:09:14.552Z,11.47
2018-12-11T17:11:43.195Z,7.60
2018-12-11T17:14:12.040Z,26.57
2018-12-11T17:16:40.477Z,16.53
2018-12-11T17:19:08.951Z,21.43
2018-12-11T17:21:37.472Z,13.73
2018-12-11T17:24:05.938Z,22.40
2018-12-11T17:26:34.542Z,20.17
2018-12-11T17:29:03.050Z,18.00
2018-12-11T17:31:31.540Z,21.43
2018-12-11T17:34:00.933Z,20.53
2018-12-11T17:36:29.358Z,21.43
2018-12-11T17:38:57.812Z,15.73
2018-12-11T17:41:26.273Z,16.57
2018-12-11T17:43:54.708Z,24.10
2018-12-11T17:46:23.249Z,23.27
2018-12-11T17:48:51.738Z,13.70
2018-12-11T17:51:20.212Z,16.47
2018-12-11T17:53:48.697Z,18.43
2018-12-11T17:56:17.158Z,8.60
2018-12-11T17:58:45.645Z,11.27
2018-12-11T18:01:14.181Z,7.77
2018-12-11T18:03:42.726Z,9.90
2018-12-11T18:06:11.154Z,10.87
2018-12-11T18:08:39.597Z,13.17
2018-12-11T18:11:08.101Z,11.80
2018-12-11T18:13:36.662Z,12.47
2018-12-11T18:16:05.238Z,14.13
2018-12-11T18:18:33.719Z,21.30
2018-12-11T18:21:02.223Z,20.77
2018-12-11T18:23:31.245Z,25.10
2018-12-11T18:25:59.780Z,17.97
2018-12-11T18:28:28.305Z,10.80
2018-12-11T18:30:56.786Z,11.77
2018-12-11T18:33:25.237Z,21.50
2018-12-11T18:35:53.857Z,34.67
2018-12-11T18:38:22.297Z,27.50
2018-12-11T18:40:51.002Z,36.00
2018-12-11T18:43:19.446Z,18.00
2018-12-11T18:45:48.037Z,20.67
2018-12-11T18:48:16.477Z,27.23
2018-12-11T18:50:44.975Z,27.10
2018-12-11T18:53:13.650Z,13.40
2018-12-11T18:55:42.094Z,13.77
2018-12-11T18:58:10.564Z,7.53
2018-12-11T19:00:39.013Z,11.60
2018-12-11T19:03:07.461Z,8.83
2018-12-11T19:05:35.901Z,7.90
2018-12-11T19:08:04.564Z,11.23
2018-12-11T19:10:33.163Z,12.87
2018-12-11T19:13:01.609Z,6.80
2018-12-11T19:15:30.410Z,9.47
2018-12-11T19:17:58.921Z,7.80
2018-12-11T19:20:27.477Z,9.83
2018-12-11T19:23:03.077Z,11.60
2018-12-11T19:25:31.581Z,10.77
2018-12-11T19:28:00.357Z,13.07
2018-12-11T19:30:29.460Z,8.97
2018-12-11T19:32:57.985Z,11.77
2018-12-11T19:35:32.803Z,8.87
2018-12-11T19:37:57.247Z,19.00
2018-12-11T19:40:25.911Z,14.10
2018-12-11T19:42:54.924Z,8.50
2018-12-11T19:45:23.456Z,14.80
2018-12-11T19:47:52.653Z,10.90
2018-12-11T19:50:22.043Z,8.07
2018-12-11T19:52:50.546Z,26.77
2018-12-11T19:55:19.091Z,30.10
2018-12-11T19:57:47.782Z,24.63
2018-12-11T20:00:16.307Z,20.50
2018-12-11T20:02:44.853Z,12.57
2018-12-11T20:05:14.064Z,10.50
2018-12-11T20:07:42.559Z,14.13
2018-12-11T20:10:18.503Z,10.23
2018-12-11T20:12:47.483Z,10.57
2018-12-11T20:15:16.033Z,10.73
2018-12-11T20:17:45.282Z,8.30
2018-12-11T20:20:33.816Z,8.43
2018-12-11T20:23:02.652Z,11.93
2018-12-11T20:25:31.213Z,7.27
2018-12-11T20:27:59.822Z,8.63
2018-12-11T20:30:28.338Z,7.30
2018-12-11T20:32:57.060Z,11.70
2018-12-11T20:35:25.955Z,10.80
2018-12-11T20:37:54.670Z,8.37
2018-12-11T20:40:23.273Z,10.77
2018-12-11T20:42:51.952Z,11.30
2018-12-11T20:45:20.511Z,9.40
2018-12-11T20:47:49.080Z,6.60
2018-12-11T20:50:17.619Z,10.10
2018-12-11T20:52:46.343Z,12.50
2018-12-11T20:55:15.242Z,8.93
2018-12-11T20:57:44.347Z,8.27
2018-12-11T21:00:13.464Z,6.92
2018-12-11T21:02:42.177Z,8.57
2018-12-11T21:05:11.289Z,7.70
2018-12-11T21:07:40.380Z,9.70
2018-12-11T21:10:11.093Z,6.13
2018-12-11T21:12:39.625Z,5.10
2018-12-11T21:15:08.756Z,5.43
2018-12-11T21:17:37.356Z,7.10
2018-12-11T21:20:06.901Z,6.30
2018-12-11T21:22:35.420Z,4.50
2018-12-11T21:25:04.989Z,4.73
2018-12-11T21:27:33.945Z,5.17
2018-12-11T21:30:02.510Z,7.17
2018-12-11T21:32:31.218Z,7.60
2018-12-11T21:34:59.795Z,6.13
2018-12-11T21:37:28.944Z,7.50
2018-12-11T21:39:57.530Z,6.17
2018-12-11T21:42:26.620Z,6.13
2018-12-11T21:44:55.191Z,5.73
2018-12-11T21:47:23.904Z,5.83
2018-12-11T21:49:52.381Z,4.90
2018-12-11T21:52:21.213Z,2.83
2018-12-11T21:54:49.691Z,3.70
2018-12-11T21:57:18.182Z,4.30
2018-12-11T21:59:46.636Z,3.20
2018-12-11T22:02:15.293Z,3.87
2018-12-11T22:04:44.418Z,4.07
2018-12-11T22:07:13.112Z,3.53
2018-12-11T22:09:41.820Z,2.90
2018-12-11T22:12:10.622Z,3.03
2018-12-11T22:14:39.165Z,2.17
2018-12-11T22:17:07.741Z,5.07
2018-12-11T22:19:36.308Z,6.73
2018-12-11T22:22:04.731Z,4.40
2018-12-11T22:24:33.927Z,2.93
2018-12-11T22:27:02.636Z,7.13
2018-12-11T22:29:31.225Z,3.97
2018-12-11T22:31:59.754Z,6.43
2018-12-11T22:34:28.267Z,4.83
2018-12-11T22:36:56.741Z,3.50
2018-12-11T22:39:25.475Z,4.10
2018-12-11T22:41:53.961Z,4.43
2018-12-11T22:44:22.651Z,3.23
2018-12-11T22:46:51.325Z,5.17
2018-12-11T22:49:19.796Z,4.37
2018-12-11T22:51:48.641Z,6.03
2018-12-11T22:54:17.743Z,5.50
2018-12-11T22:56:46.348Z,7.37
2018-12-11T22:59:14.847Z,7.00
2018-12-11T23:01:43.312Z,6.00
2018-12-11T23:04:12.037Z,3.90
2018-12-11T23:06:40.576Z,4.47
2018-12-11T23:09:09.100Z,4.13
2018-12-11T23:11:37.696Z,3.80
2018-12-11T23:14:06.393Z,3.40
2018-12-11T23:16:34.896Z,5.57
2018-12-11T23:19:03.444Z,2.97
2018-12-11T23:21:31.864Z,3.53
2018-12-11T23:24:00.311Z,2.43
2018-12-11T23:26:28.812Z,4.07
2018-12-11T23:28:57.856Z,2.73
2018-12-11T23:31:26.266Z,5.60
2018-12-11T23:33:55.099Z,3.70
2018-12-11T23:36:23.626Z,4.30
2018-12-11T23:38:52.118Z,4.23
2018-12-11T23:41:20.540Z,4.20
2018-12-11T23:43:48.965Z,10.67
2018-12-11T23:46:17.397Z,2.33
2018-12-11T23:48:46.376Z,3.57
2018-12-11T23:51:14.802Z,4.33
2018-12-11T23:53:43.239Z,2.27
2018-12-11T23:56:11.739Z,3.33
2018-12-11T23:58:40.154Z,4.77
